Pagrindinis puslapis
METAR-TAF:

METAR-TAF

Oro uostai :

Marianhamina, Suomija

platuma: 60-07N, ilguma: 019-54E, Aukštis: 6 m

Dabartinis oras

Ataskaita buvo paskelbta 5 minutes, ne 07:50 UTC
Vėjas 9 kt iš Rytų/Šiaurės Rytų, svyruoja nuo Šiaurės Rytų ir Rytų/Pietryčių
Temperatūra 13°C
Drėgmė 88%
Slėgis 1019 hPa
Matomumas 10 km arba daugiau
Išsisklaidę debesys ne aukštis 1300 ft

METAR: EFMA 010750Z AUTO 07009KT 040V110 9999 SCT013 13/11 Q1019

Laikas: 10:55 (07:55 UTC)

Prognozė

Ataskaita buvo paskelbta 2 valandos ir 19 minutes, ne 05:36 UTC
Prognozė galioja nuo 01 metu 06 UTC su 01 metu 15 UTC
Vėjas 5 kt iš Šiaurės Rytų
Matomumas 10 km arba daugiau
Su prošvaistėmis ne aukštis 2400 ft
Tikimybė 30% :
Laikinai
nuo 01 metu 06 UTC su 01 metu 11 UTC
Su prošvaistėmis ne aukštis 1000 ft
Tapsmas
nuo 01 metu 07 UTC su 01 metu 09 UTC
Vėjas 11 kt iš Rytų

TAF: EFMA 010536Z 0106/0115 04005KT 9999 BKN024 PROB30 TEMPO 0106/0111 BKN010 BECMG 0107/0109 10011KT

Orai ataskaitas ir orų prognozės (METAR, TAF).

turimą stotys yra geltonos ir raudonos taškus žemėlapyje.

Perkelti pele per norėdami pamatyti stoties vardą.

Tada spustelėkite, norėdami matyti oro stebėjimo ir prognozės.

Norėdami pakeisti žemėlapį: spustelėkite ant žalios mygtukų su juodo kryžiaus žemyn,; žalią mygtuką su brūkšneliu, jei norite nutolinti; arba žalių rodyklių gretimoms žemėlapius.


METAR-TAF: